sensor_id;sensor_type;location;lat;lon;timestamp;P1;durP1;ratioP1;P2;durP2;ratioP2
12308;SDS011;6217;48.150;17.142;2024-03-02T00:04:04;34.10;;;25.50;;
12308;SDS011;6217;48.150;17.142;2024-03-02T00:08:14;37.95;;;25.45;;
12308;SDS011;6217;48.150;17.142;2024-03-02T00:12:28;28.45;;;23.55;;
12308;SDS011;6217;48.150;17.142;2024-03-02T00:16:34;32.95;;;25.60;;
12308;SDS011;6217;48.150;17.142;2024-03-02T00:20:41;39.38;;;27.63;;
12308;SDS011;6217;48.150;17.142;2024-03-02T00:24:47;36.45;;;26.80;;
12308;SDS011;6217;48.150;17.142;2024-03-02T00:28:54;38.70;;;25.65;;
12308;SDS011;6217;48.150;17.142;2024-03-02T00:33:02;33.83;;;25.80;;
12308;SDS011;6217;48.150;17.142;2024-03-02T00:37:12;36.45;;;25.00;;
12308;SDS011;6217;48.150;17.142;2024-03-02T00:45:36;28.92;;;24.25;;
12308;SDS011;6217;48.150;17.142;2024-03-02T00:49:45;34.05;;;26.45;;
12308;SDS011;6217;48.150;17.142;2024-03-02T00:53:53;40.45;;;29.70;;
12308;SDS011;6217;48.150;17.142;2024-03-02T00:58:01;38.33;;;25.50;;
12308;SDS011;6217;48.150;17.142;2024-03-02T01:02:07;36.13;;;27.60;;
12308;SDS011;6217;48.150;17.142;2024-03-02T01:06:13;37.92;;;25.02;;
12308;SDS011;6217;48.150;17.142;2024-03-02T01:10:19;32.92;;;24.08;;
12308;SDS011;6217;48.150;17.142;2024-03-02T01:14:25;36.88;;;25.73;;
12308;SDS011;6217;48.150;17.142;2024-03-02T01:18:31;36.30;;;27.33;;
12308;SDS011;6217;48.150;17.142;2024-03-02T01:22:37;37.13;;;27.85;;
12308;SDS011;6217;48.150;17.142;2024-03-02T01:26:43;45.25;;;31.10;;
12308;SDS011;6217;48.150;17.142;2024-03-02T01:30:49;37.67;;;28.75;;
12308;SDS011;6217;48.150;17.142;2024-03-02T01:34:55;41.25;;;30.33;;
12308;SDS011;6217;48.150;17.142;2024-03-02T01:39:01;41.42;;;29.85;;
12308;SDS011;6217;48.150;17.142;2024-03-02T01:43:08;44.63;;;30.13;;
12308;SDS011;6217;48.150;17.142;2024-03-02T01:47:13;43.15;;;29.77;;
12308;SDS011;6217;48.150;17.142;2024-03-02T01:51:19;38.20;;;28.10;;
12308;SDS011;6217;48.150;17.142;2024-03-02T01:55:26;39.85;;;29.85;;
12308;SDS011;6217;48.150;17.142;2024-03-02T01:59:34;33.33;;;26.70;;
12308;SDS011;6217;48.150;17.142;2024-03-02T02:03:40;37.50;;;28.60;;
12308;SDS011;6217;48.150;17.142;2024-03-02T02:07:46;39.28;;;30.42;;
12308;SDS011;6217;48.150;17.142;2024-03-02T02:11:52;45.40;;;31.35;;
12308;SDS011;6217;48.150;17.142;2024-03-02T02:16:05;42.60;;;30.75;;
12308;SDS011;6217;48.150;17.142;2024-03-02T02:20:14;39.55;;;27.42;;
12308;SDS011;6217;48.150;17.142;2024-03-02T02:24:20;44.35;;;29.52;;
12308;SDS011;6217;48.150;17.142;2024-03-02T02:28:26;39.80;;;28.83;;
12308;SDS011;6217;48.150;17.142;2024-03-02T02:32:32;41.08;;;30.08;;
12308;SDS011;6217;48.150;17.142;2024-03-02T02:36:38;41.00;;;30.42;;
12308;SDS011;6217;48.150;17.142;2024-03-02T02:40:45;40.95;;;30.55;;
12308;SDS011;6217;48.150;17.142;2024-03-02T02:44:51;43.55;;;30.25;;
12308;SDS011;6217;48.150;17.142;2024-03-02T02:48:57;43.55;;;32.72;;
12308;SDS011;6217;48.150;17.142;2024-03-02T02:53:03;41.08;;;30.83;;
12308;SDS011;6217;48.150;17.142;2024-03-02T02:57:09;41.10;;;31.70;;
12308;SDS011;6217;48.150;17.142;2024-03-02T03:01:15;41.38;;;30.65;;
12308;SDS011;6217;48.150;17.142;2024-03-02T03:05:24;52.13;;;35.20;;
12308;SDS011;6217;48.150;17.142;2024-03-02T03:09:30;42.13;;;31.17;;
12308;SDS011;6217;48.150;17.142;2024-03-02T03:13:36;50.55;;;33.45;;
12308;SDS011;6217;48.150;17.142;2024-03-02T03:17:42;47.47;;;31.65;;
12308;SDS011;6217;48.150;17.142;2024-03-02T03:21:48;42.65;;;32.58;;
12308;SDS011;6217;48.150;17.142;2024-03-02T03:25:54;55.38;;;34.25;;
12308;SDS011;6217;48.150;17.142;2024-03-02T03:30:00;54.75;;;33.83;;
12308;SDS011;6217;48.150;17.142;2024-03-02T03:34:06;57.47;;;38.53;;
12308;SDS011;6217;48.150;17.142;2024-03-02T03:38:11;60.10;;;37.20;;
12308;SDS011;6217;48.150;17.142;2024-03-02T03:42:17;52.08;;;35.35;;
12308;SDS011;6217;48.150;17.142;2024-03-02T03:46:23;60.15;;;37.80;;
12308;SDS011;6217;48.150;17.142;2024-03-02T03:50:29;54.70;;;37.38;;
12308;SDS011;6217;48.150;17.142;2024-03-02T03:54:35;60.40;;;39.78;;
12308;SDS011;6217;48.150;17.142;2024-03-02T03:58:43;55.92;;;36.58;;
12308;SDS011;6217;48.150;17.142;2024-03-02T04:02:49;44.28;;;28.95;;
12308;SDS011;6217;48.150;17.142;2024-03-02T04:06:55;39.85;;;26.50;;
12308;SDS011;6217;48.150;17.142;2024-03-02T04:11:01;43.55;;;29.50;;
12308;SDS011;6217;48.150;17.142;2024-03-02T04:15:08;37.17;;;26.50;;
12308;SDS011;6217;48.150;17.142;2024-03-02T04:19:14;37.60;;;26.05;;
12308;SDS011;6217;48.150;17.142;2024-03-02T04:23:20;38.85;;;25.88;;
12308;SDS011;6217;48.150;17.142;2024-03-02T04:27:26;35.17;;;25.52;;
12308;SDS011;6217;48.150;17.142;2024-03-02T04:31:32;37.45;;;27.15;;
12308;SDS011;6217;48.150;17.142;2024-03-02T04:35:38;40.80;;;28.15;;
12308;SDS011;6217;48.150;17.142;2024-03-02T04:39:43;40.65;;;28.42;;
12308;SDS011;6217;48.150;17.142;2024-03-02T04:43:49;40.10;;;26.92;;
12308;SDS011;6217;48.150;17.142;2024-03-02T04:47:55;39.80;;;29.17;;
12308;SDS011;6217;48.150;17.142;2024-03-02T04:52:01;35.83;;;27.30;;
12308;SDS011;6217;48.150;17.142;2024-03-02T04:56:07;44.35;;;29.23;;
12308;SDS011;6217;48.150;17.142;2024-03-02T05:00:45;34.85;;;24.52;;
12308;SDS011;6217;48.150;17.142;2024-03-02T05:04:54;40.05;;;27.17;;
12308;SDS011;6217;48.150;17.142;2024-03-02T05:09:02;40.25;;;28.35;;
12308;SDS011;6217;48.150;17.142;2024-03-02T05:13:08;50.15;;;30.52;;
12308;SDS011;6217;48.150;17.142;2024-03-02T05:17:14;38.92;;;29.85;;
12308;SDS011;6217;48.150;17.142;2024-03-02T05:21:21;49.85;;;32.78;;
12308;SDS011;6217;48.150;17.142;2024-03-02T05:25:29;49.20;;;32.92;;
12308;SDS011;6217;48.150;17.142;2024-03-02T05:29:36;45.10;;;32.22;;
12308;SDS011;6217;48.150;17.142;2024-03-02T05:33:44;48.45;;;32.60;;
12308;SDS011;6217;48.150;17.142;2024-03-02T05:37:51;51.58;;;31.77;;
12308;SDS011;6217;48.150;17.142;2024-03-02T05:41:57;45.08;;;34.05;;
12308;SDS011;6217;48.150;17.142;2024-03-02T05:46:03;43.83;;;32.78;;
12308;SDS011;6217;48.150;17.142;2024-03-02T05:50:09;52.80;;;32.13;;
12308;SDS011;6217;48.150;17.142;2024-03-02T05:54:15;50.20;;;34.90;;
12308;SDS011;6217;48.150;17.142;2024-03-02T05:58:22;45.70;;;32.17;;
12308;SDS011;6217;48.150;17.142;2024-03-02T06:02:47;45.25;;;33.55;;
12308;SDS011;6217;48.150;17.142;2024-03-02T06:06:54;47.05;;;32.65;;
12308;SDS011;6217;48.150;17.142;2024-03-02T06:11:01;45.30;;;32.53;;
12308;SDS011;6217;48.150;17.142;2024-03-02T06:15:07;45.45;;;31.90;;
12308;SDS011;6217;48.150;17.142;2024-03-02T06:19:16;44.28;;;30.13;;
12308;SDS011;6217;48.150;17.142;2024-03-02T06:23:23;50.05;;;32.38;;
12308;SDS011;6217;48.150;17.142;2024-03-02T06:27:29;44.60;;;31.40;;
12308;SDS011;6217;48.150;17.142;2024-03-02T06:31:36;43.83;;;31.42;;
12308;SDS011;6217;48.150;17.142;2024-03-02T06:35:42;50.53;;;32.80;;
12308;SDS011;6217;48.150;17.142;2024-03-02T06:39:48;43.42;;;30.80;;
12308;SDS011;6217;48.150;17.142;2024-03-02T06:43:54;47.15;;;32.05;;
12308;SDS011;6217;48.150;17.142;2024-03-02T06:48:04;46.63;;;30.83;;
12308;SDS011;6217;48.150;17.142;2024-03-02T06:52:11;45.47;;;30.33;;
12308;SDS011;6217;48.150;17.142;2024-03-02T06:56:17;49.63;;;32.90;;
12308;SDS011;6217;48.150;17.142;2024-03-02T07:00:23;40.80;;;31.55;;
12308;SDS011;6217;48.150;17.142;2024-03-02T07:04:29;40.85;;;28.45;;
12308;SDS011;6217;48.150;17.142;2024-03-02T07:08:35;38.58;;;26.52;;
12308;SDS011;6217;48.150;17.142;2024-03-02T07:12:41;34.33;;;27.30;;
12308;SDS011;6217;48.150;17.142;2024-03-02T07:16:47;37.38;;;24.77;;
12308;SDS011;6217;48.150;17.142;2024-03-02T07:20:53;44.10;;;28.52;;
12308;SDS011;6217;48.150;17.142;2024-03-02T07:24:59;42.45;;;30.05;;
12308;SDS011;6217;48.150;17.142;2024-03-02T07:29:04;42.08;;;30.77;;
12308;SDS011;6217;48.150;17.142;2024-03-02T07:33:11;45.63;;;29.77;;
12308;SDS011;6217;48.150;17.142;2024-03-02T07:37:16;41.70;;;30.30;;
12308;SDS011;6217;48.150;17.142;2024-03-02T07:41:23;43.90;;;30.17;;
12308;SDS011;6217;48.150;17.142;2024-03-02T07:45:29;44.63;;;30.60;;
12308;SDS011;6217;48.150;17.142;2024-03-02T07:49:35;51.92;;;32.85;;
12308;SDS011;6217;48.150;17.142;2024-03-02T07:53:41;47.65;;;31.55;;
12308;SDS011;6217;48.150;17.142;2024-03-02T07:57:47;37.17;;;28.55;;
12308;SDS011;6217;48.150;17.142;2024-03-02T08:01:53;55.75;;;32.97;;
12308;SDS011;6217;48.150;17.142;2024-03-02T08:06:00;56.67;;;35.55;;
12308;SDS011;6217;48.150;17.142;2024-03-02T08:10:06;45.97;;;34.80;;
12308;SDS011;6217;48.150;17.142;2024-03-02T08:14:13;46.78;;;33.25;;
12308;SDS011;6217;48.150;17.142;2024-03-02T08:18:19;48.00;;;34.25;;
12308;SDS011;6217;48.150;17.142;2024-03-02T08:22:25;48.08;;;34.53;;
12308;SDS011;6217;48.150;17.142;2024-03-02T08:26:31;42.83;;;32.88;;
12308;SDS011;6217;48.150;17.142;2024-03-02T08:30:37;48.20;;;31.88;;
12308;SDS011;6217;48.150;17.142;2024-03-02T08:34:43;40.25;;;31.15;;
12308;SDS011;6217;48.150;17.142;2024-03-02T08:38:49;42.88;;;30.98;;
12308;SDS011;6217;48.150;17.142;2024-03-02T08:42:55;46.72;;;32.65;;
12308;SDS011;6217;48.150;17.142;2024-03-02T08:47:01;41.08;;;31.17;;
12308;SDS011;6217;48.150;17.142;2024-03-02T08:51:07;45.03;;;32.00;;
12308;SDS011;6217;48.150;17.142;2024-03-02T08:55:15;40.92;;;32.67;;
12308;SDS011;6217;48.150;17.142;2024-03-02T08:59:21;42.28;;;29.58;;
12308;SDS011;6217;48.150;17.142;2024-03-02T09:03:27;36.55;;;30.00;;
12308;SDS011;6217;48.150;17.142;2024-03-02T09:07:33;39.60;;;30.30;;
12308;SDS011;6217;48.150;17.142;2024-03-02T09:11:39;36.00;;;26.15;;
12308;SDS011;6217;48.150;17.142;2024-03-02T09:15:45;38.33;;;28.08;;
12308;SDS011;6217;48.150;17.142;2024-03-02T09:19:51;35.70;;;29.58;;
12308;SDS011;6217;48.150;17.142;2024-03-02T09:23:58;35.42;;;26.50;;
12308;SDS011;6217;48.150;17.142;2024-03-02T09:28:04;34.00;;;25.40;;
12308;SDS011;6217;48.150;17.142;2024-03-02T09:32:12;31.20;;;25.67;;
12308;SDS011;6217;48.150;17.142;2024-03-02T09:36:19;34.22;;;24.65;;
12308;SDS011;6217;48.150;17.142;2024-03-02T09:40:27;36.30;;;29.15;;
12308;SDS011;6217;48.150;17.142;2024-03-02T09:44:33;37.40;;;27.10;;
12308;SDS011;6217;48.150;17.142;2024-03-02T09:48:39;40.08;;;29.05;;
12308;SDS011;6217;48.150;17.142;2024-03-02T09:52:48;35.70;;;26.65;;
12308;SDS011;6217;48.150;17.142;2024-03-02T09:56:55;37.85;;;29.52;;
12308;SDS011;6217;48.150;17.142;2024-03-02T10:01:01;40.38;;;31.05;;
12308;SDS011;6217;48.150;17.142;2024-03-02T10:05:11;39.10;;;28.77;;
12308;SDS011;6217;48.150;17.142;2024-03-02T10:09:26;39.25;;;30.23;;
12308;SDS011;6217;48.150;17.142;2024-03-02T10:13:35;36.97;;;28.70;;
12308;SDS011;6217;48.150;17.142;2024-03-02T10:17:41;32.70;;;25.75;;
12308;SDS011;6217;48.150;17.142;2024-03-02T10:21:48;41.75;;;29.52;;
12308;SDS011;6217;48.150;17.142;2024-03-02T10:25:58;36.17;;;26.83;;
12308;SDS011;6217;48.150;17.142;2024-03-02T10:30:04;38.63;;;31.65;;
12308;SDS011;6217;48.150;17.142;2024-03-02T10:34:13;41.53;;;30.38;;
12308;SDS011;6217;48.150;17.142;2024-03-02T10:38:21;39.30;;;26.48;;
12308;SDS011;6217;48.150;17.142;2024-03-02T10:42:27;37.90;;;23.38;;
12308;SDS011;6217;48.150;17.142;2024-03-02T10:46:33;41.65;;;29.48;;
12308;SDS011;6217;48.150;17.142;2024-03-02T10:50:41;38.20;;;27.17;;
12308;SDS011;6217;48.150;17.142;2024-03-02T10:54:47;39.63;;;27.60;;
12308;SDS011;6217;48.150;17.142;2024-03-02T10:58:55;36.35;;;28.90;;
12308;SDS011;6217;48.150;17.142;2024-03-02T11:03:20;34.90;;;27.95;;
12308;SDS011;6217;48.150;17.142;2024-03-02T11:07:26;41.67;;;29.05;;
12308;SDS011;6217;48.150;17.142;2024-03-02T11:11:40;38.40;;;28.35;;
12308;SDS011;6217;48.150;17.142;2024-03-02T11:15:49;41.03;;;32.72;;
12308;SDS011;6217;48.150;17.142;2024-03-02T11:20:00;47.25;;;37.17;;
12308;SDS011;6217;48.150;17.142;2024-03-02T11:28:38;44.45;;;31.75;;
12308;SDS011;6217;48.150;17.142;2024-03-02T11:32:44;44.58;;;34.72;;
12308;SDS011;6217;48.150;17.142;2024-03-02T11:37:01;43.42;;;33.88;;
12308;SDS011;6217;48.150;17.142;2024-03-02T11:41:08;41.83;;;34.03;;
12308;SDS011;6217;48.150;17.142;2024-03-02T11:45:17;49.63;;;37.17;;
12308;SDS011;6217;48.150;17.142;2024-03-02T11:49:41;49.10;;;36.03;;
12308;SDS011;6217;48.150;17.142;2024-03-02T11:53:55;58.22;;;37.15;;
12308;SDS011;6217;48.150;17.142;2024-03-02T11:58:04;50.55;;;38.78;;
12308;SDS011;6217;48.150;17.142;2024-03-02T12:02:17;53.75;;;38.72;;
12308;SDS011;6217;48.150;17.142;2024-03-02T12:06:25;50.22;;;36.20;;
12308;SDS011;6217;48.150;17.142;2024-03-02T12:10:32;43.28;;;31.10;;
12308;SDS011;6217;48.150;17.142;2024-03-02T12:14:39;48.10;;;37.22;;
12308;SDS011;6217;48.150;17.142;2024-03-02T12:18:45;50.65;;;35.25;;
12308;SDS011;6217;48.150;17.142;2024-03-02T12:22:54;52.92;;;36.33;;
12308;SDS011;6217;48.150;17.142;2024-03-02T12:27:01;49.20;;;36.70;;
12308;SDS011;6217;48.150;17.142;2024-03-02T12:31:07;41.67;;;30.42;;
12308;SDS011;6217;48.150;17.142;2024-03-02T12:35:14;48.03;;;37.30;;
12308;SDS011;6217;48.150;17.142;2024-03-02T12:39:20;52.28;;;36.97;;
12308;SDS011;6217;48.150;17.142;2024-03-02T12:43:31;50.00;;;33.17;;
12308;SDS011;6217;48.150;17.142;2024-03-02T12:47:37;48.67;;;33.15;;
12308;SDS011;6217;48.150;17.142;2024-03-02T12:51:46;46.35;;;34.75;;
12308;SDS011;6217;48.150;17.142;2024-03-02T12:55:56;42.20;;;31.00;;
12308;SDS011;6217;48.150;17.142;2024-03-02T13:00:03;36.50;;;27.85;;
12308;SDS011;6217;48.150;17.142;2024-03-02T13:04:14;41.83;;;31.83;;
12308;SDS011;6217;48.150;17.142;2024-03-02T13:08:20;41.03;;;30.00;;
12308;SDS011;6217;48.150;17.142;2024-03-02T13:12:27;41.65;;;28.73;;
12308;SDS011;6217;48.150;17.142;2024-03-02T13:16:38;38.55;;;27.55;;
12308;SDS011;6217;48.150;17.142;2024-03-02T13:20:45;32.42;;;24.98;;
12308;SDS011;6217;48.150;17.142;2024-03-02T13:24:51;31.75;;;23.17;;
12308;SDS011;6217;48.150;17.142;2024-03-02T13:28:59;28.77;;;22.60;;
12308;SDS011;6217;48.150;17.142;2024-03-02T13:33:05;28.17;;;22.15;;
12308;SDS011;6217;48.150;17.142;2024-03-02T13:37:11;27.00;;;21.00;;
12308;SDS011;6217;48.150;17.142;2024-03-02T13:41:17;25.90;;;20.27;;
12308;SDS011;6217;48.150;17.142;2024-03-02T13:45:23;26.25;;;22.40;;
12308;SDS011;6217;48.150;17.142;2024-03-02T13:49:29;24.92;;;21.13;;
12308;SDS011;6217;48.150;17.142;2024-03-02T13:53:48;31.38;;;21.20;;
12308;SDS011;6217;48.150;17.142;2024-03-02T13:57:55;21.92;;;16.05;;
12308;SDS011;6217;48.150;17.142;2024-03-02T14:02:01;18.55;;;16.50;;
12308;SDS011;6217;48.150;17.142;2024-03-02T14:06:10;21.05;;;16.23;;
12308;SDS011;6217;48.150;17.142;2024-03-02T14:10:16;22.05;;;17.75;;
12308;SDS011;6217;48.150;17.142;2024-03-02T14:14:27;17.50;;;15.32;;
12308;SDS011;6217;48.150;17.142;2024-03-02T14:18:33;18.83;;;15.48;;
12308;SDS011;6217;48.150;17.142;2024-03-02T14:22:39;18.02;;;16.00;;
12308;SDS011;6217;48.150;17.142;2024-03-02T14:26:45;15.70;;;14.10;;
12308;SDS011;6217;48.150;17.142;2024-03-02T14:30:51;18.67;;;14.60;;
12308;SDS011;6217;48.150;17.142;2024-03-02T14:34:57;17.63;;;15.73;;
12308;SDS011;6217;48.150;17.142;2024-03-02T14:39:03;22.13;;;15.98;;
12308;SDS011;6217;48.150;17.142;2024-03-02T14:43:09;16.83;;;14.98;;
12308;SDS011;6217;48.150;17.142;2024-03-02T14:47:15;20.73;;;16.77;;
12308;SDS011;6217;48.150;17.142;2024-03-02T14:51:21;19.13;;;15.48;;
12308;SDS011;6217;48.150;17.142;2024-03-02T14:55:27;19.23;;;15.50;;
12308;SDS011;6217;48.150;17.142;2024-03-02T14:59:33;17.15;;;15.43;;
12308;SDS011;6217;48.150;17.142;2024-03-02T15:03:39;18.40;;;15.65;;
12308;SDS011;6217;48.150;17.142;2024-03-02T15:07:46;19.10;;;14.70;;
12308;SDS011;6217;48.150;17.142;2024-03-02T15:11:51;20.63;;;15.90;;
12308;SDS011;6217;48.150;17.142;2024-03-02T15:15:57;20.20;;;16.55;;
12308;SDS011;6217;48.150;17.142;2024-03-02T15:20:06;18.60;;;16.55;;
12308;SDS011;6217;48.150;17.142;2024-03-02T15:24:13;16.67;;;14.48;;
12308;SDS011;6217;48.150;17.142;2024-03-02T15:28:21;17.63;;;15.80;;
12308;SDS011;6217;48.150;17.142;2024-03-02T15:32:27;18.15;;;15.52;;
12308;SDS011;6217;48.150;17.142;2024-03-02T15:36:34;15.70;;;13.95;;
12308;SDS011;6217;48.150;17.142;2024-03-02T15:40:40;15.60;;;13.85;;
12308;SDS011;6217;48.150;17.142;2024-03-02T15:44:46;17.88;;;14.63;;
12308;SDS011;6217;48.150;17.142;2024-03-02T15:48:52;17.55;;;15.05;;
12308;SDS011;6217;48.150;17.142;2024-03-02T15:52:58;19.10;;;15.95;;
12308;SDS011;6217;48.150;17.142;2024-03-02T15:57:07;17.58;;;14.77;;
12308;SDS011;6217;48.150;17.142;2024-03-02T16:01:13;19.67;;;16.40;;
12308;SDS011;6217;48.150;17.142;2024-03-02T16:05:19;15.43;;;13.48;;
12308;SDS011;6217;48.150;17.142;2024-03-02T16:09:26;17.80;;;14.32;;
12308;SDS011;6217;48.150;17.142;2024-03-02T16:13:31;20.02;;;15.93;;
12308;SDS011;6217;48.150;17.142;2024-03-02T16:17:37;19.75;;;15.80;;
12308;SDS011;6217;48.150;17.142;2024-03-02T16:21:43;18.77;;;16.02;;
12308;SDS011;6217;48.150;17.142;2024-03-02T16:25:52;21.25;;;17.40;;
12308;SDS011;6217;48.150;17.142;2024-03-02T16:29:58;20.27;;;16.13;;
12308;SDS011;6217;48.150;17.142;2024-03-02T16:34:04;18.65;;;16.00;;
12308;SDS011;6217;48.150;17.142;2024-03-02T16:38:10;23.45;;;17.52;;
12308;SDS011;6217;48.150;17.142;2024-03-02T16:42:17;21.20;;;17.42;;
12308;SDS011;6217;48.150;17.142;2024-03-02T16:46:25;21.25;;;17.15;;
12308;SDS011;6217;48.150;17.142;2024-03-02T16:50:31;20.00;;;16.38;;
12308;SDS011;6217;48.150;17.142;2024-03-02T16:54:37;21.35;;;16.33;;
12308;SDS011;6217;48.150;17.142;2024-03-02T16:58:43;20.52;;;17.25;;
12308;SDS011;6217;48.150;17.142;2024-03-02T17:02:49;24.63;;;18.65;;
12308;SDS011;6217;48.150;17.142;2024-03-02T17:06:55;23.35;;;18.50;;
12308;SDS011;6217;48.150;17.142;2024-03-02T17:11:01;23.20;;;17.77;;
12308;SDS011;6217;48.150;17.142;2024-03-02T17:15:09;18.80;;;16.23;;
12308;SDS011;6217;48.150;17.142;2024-03-02T17:19:15;20.20;;;17.25;;
12308;SDS011;6217;48.150;17.142;2024-03-02T17:23:21;24.13;;;18.38;;
12308;SDS011;6217;48.150;17.142;2024-03-02T17:27:27;21.70;;;17.55;;
12308;SDS011;6217;48.150;17.142;2024-03-02T17:31:35;23.58;;;19.65;;
12308;SDS011;6217;48.150;17.142;2024-03-02T17:35:42;23.48;;;20.08;;
12308;SDS011;6217;48.150;17.142;2024-03-02T17:39:50;22.70;;;18.85;;
12308;SDS011;6217;48.150;17.142;2024-03-02T17:43:56;26.65;;;20.85;;
12308;SDS011;6217;48.150;17.142;2024-03-02T17:48:02;22.35;;;17.83;;
12308;SDS011;6217;48.150;17.142;2024-03-02T17:52:09;24.23;;;19.92;;
12308;SDS011;6217;48.150;17.142;2024-03-02T17:56:14;27.98;;;20.08;;
12308;SDS011;6217;48.150;17.142;2024-03-02T18:00:20;26.08;;;21.55;;
12308;SDS011;6217;48.150;17.142;2024-03-02T18:04:26;24.52;;;19.63;;
12308;SDS011;6217;48.150;17.142;2024-03-02T18:08:34;26.48;;;21.67;;
12308;SDS011;6217;48.150;17.142;2024-03-02T18:12:40;29.67;;;20.65;;
12308;SDS011;6217;48.150;17.142;2024-03-02T18:16:46;26.35;;;21.75;;
12308;SDS011;6217;48.150;17.142;2024-03-02T18:20:52;23.55;;;20.10;;
12308;SDS011;6217;48.150;17.142;2024-03-02T18:24:58;29.15;;;22.67;;
12308;SDS011;6217;48.150;17.142;2024-03-02T18:29:04;29.45;;;22.77;;
12308;SDS011;6217;48.150;17.142;2024-03-02T18:33:13;27.70;;;20.90;;
12308;SDS011;6217;48.150;17.142;2024-03-02T18:37:26;30.10;;;23.70;;
12308;SDS011;6217;48.150;17.142;2024-03-02T18:41:38;26.52;;;21.33;;
12308;SDS011;6217;48.150;17.142;2024-03-02T18:45:44;29.92;;;24.17;;
12308;SDS011;6217;48.150;17.142;2024-03-02T18:49:50;27.42;;;22.40;;
12308;SDS011;6217;48.150;17.142;2024-03-02T18:54:00;27.85;;;23.27;;
12308;SDS011;6217;48.150;17.142;2024-03-02T18:58:09;30.52;;;24.05;;
12308;SDS011;6217;48.150;17.142;2024-03-02T19:02:15;26.30;;;22.98;;
12308;SDS011;6217;48.150;17.142;2024-03-02T19:06:20;25.85;;;21.30;;
12308;SDS011;6217;48.150;17.142;2024-03-02T19:10:26;27.65;;;22.00;;
12308;SDS011;6217;48.150;17.142;2024-03-02T19:14:33;23.63;;;18.92;;
12308;SDS011;6217;48.150;17.142;2024-03-02T19:22:51;23.55;;;18.52;;
12308;SDS011;6217;48.150;17.142;2024-03-02T19:26:57;27.08;;;22.92;;
12308;SDS011;6217;48.150;17.142;2024-03-02T19:31:03;28.38;;;22.40;;
12308;SDS011;6217;48.150;17.142;2024-03-02T19:35:09;28.75;;;20.90;;
12308;SDS011;6217;48.150;17.142;2024-03-02T19:39:18;23.75;;;19.55;;
12308;SDS011;6217;48.150;17.142;2024-03-02T19:43:40;24.67;;;19.15;;
12308;SDS011;6217;48.150;17.142;2024-03-02T19:47:46;27.50;;;20.27;;
12308;SDS011;6217;48.150;17.142;2024-03-02T19:51:52;25.23;;;19.08;;
12308;SDS011;6217;48.150;17.142;2024-03-02T19:55:58;30.35;;;20.75;;
12308;SDS011;6217;48.150;17.142;2024-03-02T20:00:04;27.33;;;20.23;;
12308;SDS011;6217;48.150;17.142;2024-03-02T20:04:12;27.27;;;19.92;;
12308;SDS011;6217;48.150;17.142;2024-03-02T20:08:18;28.38;;;20.75;;
12308;SDS011;6217;48.150;17.142;2024-03-02T20:12:25;25.50;;;19.50;;
12308;SDS011;6217;48.150;17.142;2024-03-02T20:16:33;28.98;;;21.65;;
12308;SDS011;6217;48.150;17.142;2024-03-02T20:20:39;30.65;;;21.23;;
12308;SDS011;6217;48.150;17.142;2024-03-02T20:24:45;30.13;;;22.67;;
12308;SDS011;6217;48.150;17.142;2024-03-02T20:28:51;28.83;;;19.90;;
12308;SDS011;6217;48.150;17.142;2024-03-02T20:32:58;36.95;;;22.77;;
12308;SDS011;6217;48.150;17.142;2024-03-02T20:37:04;35.10;;;23.13;;
12308;SDS011;6217;48.150;17.142;2024-03-02T20:41:19;35.17;;;24.75;;
12308;SDS011;6217;48.150;17.142;2024-03-02T20:45:25;36.33;;;23.75;;
12308;SDS011;6217;48.150;17.142;2024-03-02T20:49:31;37.58;;;25.17;;
12308;SDS011;6217;48.150;17.142;2024-03-02T20:53:37;37.95;;;24.65;;
12308;SDS011;6217;48.150;17.142;2024-03-02T20:57:43;46.13;;;27.23;;
12308;SDS011;6217;48.150;17.142;2024-03-02T21:01:49;45.05;;;28.58;;
12308;SDS011;6217;48.150;17.142;2024-03-02T21:05:55;42.85;;;30.02;;
12308;SDS011;6217;48.150;17.142;2024-03-02T21:10:02;42.67;;;28.40;;
12308;SDS011;6217;48.150;17.142;2024-03-02T21:14:10;46.63;;;27.38;;
12308;SDS011;6217;48.150;17.142;2024-03-02T21:18:16;51.92;;;30.25;;
12308;SDS011;6217;48.150;17.142;2024-03-02T21:22:22;60.20;;;35.05;;
12308;SDS011;6217;48.150;17.142;2024-03-02T21:26:28;51.92;;;29.30;;
12308;SDS011;6217;48.150;17.142;2024-03-02T21:30:34;54.55;;;33.10;;
12308;SDS011;6217;48.150;17.142;2024-03-02T21:34:40;53.97;;;32.55;;
12308;SDS011;6217;48.150;17.142;2024-03-02T21:38:46;63.55;;;34.88;;
12308;SDS011;6217;48.150;17.142;2024-03-02T21:42:52;55.55;;;32.47;;
12308;SDS011;6217;48.150;17.142;2024-03-02T21:47:01;59.28;;;31.38;;
12308;SDS011;6217;48.150;17.142;2024-03-02T21:51:07;55.05;;;33.33;;
12308;SDS011;6217;48.150;17.142;2024-03-02T21:55:20;56.42;;;32.55;;
12308;SDS011;6217;48.150;17.142;2024-03-02T21:59:26;62.83;;;35.60;;
12308;SDS011;6217;48.150;17.142;2024-03-02T22:03:32;57.00;;;32.53;;
12308;SDS011;6217;48.150;17.142;2024-03-02T22:07:38;56.92;;;33.97;;
12308;SDS011;6217;48.150;17.142;2024-03-02T22:11:45;62.45;;;35.90;;
12308;SDS011;6217;48.150;17.142;2024-03-02T22:15:50;60.30;;;34.97;;
12308;SDS011;6217;48.150;17.142;2024-03-02T22:19:56;56.72;;;31.88;;
12308;SDS011;6217;48.150;17.142;2024-03-02T22:24:02;60.28;;;35.50;;
12308;SDS011;6217;48.150;17.142;2024-03-02T22:28:08;53.65;;;33.83;;
12308;SDS011;6217;48.150;17.142;2024-03-02T22:32:14;60.20;;;33.00;;
12308;SDS011;6217;48.150;17.142;2024-03-02T22:36:21;58.42;;;34.25;;
12308;SDS011;6217;48.150;17.142;2024-03-02T22:40:27;59.90;;;34.70;;
12308;SDS011;6217;48.150;17.142;2024-03-02T22:44:33;53.53;;;32.55;;
12308;SDS011;6217;48.150;17.142;2024-03-02T22:48:42;54.17;;;34.33;;
12308;SDS011;6217;48.150;17.142;2024-03-02T22:52:48;59.15;;;35.03;;
12308;SDS011;6217;48.150;17.142;2024-03-02T22:56:55;63.20;;;36.95;;
12308;SDS011;6217;48.150;17.142;2024-03-02T23:01:02;54.83;;;36.90;;
12308;SDS011;6217;48.150;17.142;2024-03-02T23:09:19;62.30;;;35.03;;
12308;SDS011;6217;48.150;17.142;2024-03-02T23:13:25;66.97;;;38.58;;
12308;SDS011;6217;48.150;17.142;2024-03-02T23:17:32;64.80;;;38.47;;
12308;SDS011;6217;48.150;17.142;2024-03-02T23:21:38;60.85;;;35.40;;
12308;SDS011;6217;48.150;17.142;2024-03-02T23:25:45;62.70;;;36.88;;
12308;SDS011;6217;48.150;17.142;2024-03-02T23:29:52;59.72;;;35.88;;
12308;SDS011;6217;48.150;17.142;2024-03-02T23:33:58;67.65;;;42.40;;
12308;SDS011;6217;48.150;17.142;2024-03-02T23:38:04;61.72;;;35.97;;
12308;SDS011;6217;48.150;17.142;2024-03-02T23:42:10;65.35;;;37.88;;
12308;SDS011;6217;48.150;17.142;2024-03-02T23:46:16;64.28;;;36.47;;
12308;SDS011;6217;48.150;17.142;2024-03-02T23:50:22;58.60;;;34.33;;
12308;SDS011;6217;48.150;17.142;2024-03-02T23:54:28;61.95;;;38.10;;
12308;SDS011;6217;48.150;17.142;2024-03-02T23:58:34;67.28;;;41.45;;
